Time;durP1;ratioP1;P1;durP2;ratioP2;P2;SDS_P1;SDS_P2;PMS_P1;PMS_P2;Temp;Humidity;BMP_temperature;BMP_pressure;BME280_temperature;BME280_humidity;BME280_pressure;Samples;Min_cycle;Max_cycle;Signal;HPM_P1;HPM_P2
2023/10/29 00:00:09;;;;;;;;;;;;;;;16.66;53.77;95716.34;4218976;28;5664;-65
2023/10/29 00:02:12;;;;;;;;;;;;;;;16.65;53.65;95717.38;4219095;28;6473;-66
2023/10/29 00:04:15;;;;;;;;;;;;;;;16.64;53.85;95727.25;4218952;28;5691;-66
2023/10/29 00:06:18;;;;;;;;;;;;;;;16.64;53.87;95729.91;4218851;28;5832;-66
2023/10/29 00:08:21;;;;;;;;;;;;;;;16.63;53.87;95733.63;4218532;28;5671;-65
2023/10/29 00:10:24;;;;;;;;;;;;;;;16.62;53.92;95729.38;4218729;28;5675;-65
2023/10/29 00:12:28;;;;;;;;;;;;;;;16.63;53.85;95732.84;4218647;28;6445;-65
2023/10/29 00:14:30;;;;;;;;;;;;;;;16.61;53.81;95733.09;4218805;28;5684;-65
2023/10/29 00:16:34;;;;;;;;;;;;;;;16.60;53.92;95734.97;4218845;28;5679;-65
2023/10/29 00:18:36;;;;;;;;;;;;;;;16.60;54.08;95739.50;4216623;28;6470;-66
2023/10/29 00:20:39;;;;;;;;;;;;;;;16.60;53.96;95739.50;4211981;28;5868;-66
2023/10/29 00:22:42;;;;;;;;;;;;;;;16.59;54.06;95733.38;4218622;28;5671;-65
2023/10/29 00:24:45;;;;;;;;;;;;;;;16.58;53.80;95736.28;4210335;28;5659;-66
2023/10/29 00:26:48;;;;;;;;;;;;;;;16.58;53.99;95742.44;4226649;28;5735;-66
2023/10/29 00:28:52;;;;;;;;;;;;;;;16.59;54.04;95740.56;4217584;28;5734;-65
2023/10/29 00:30:55;;;;;;;;;;;;;;;16.58;53.94;95738.97;4217961;28;5700;-66
2023/10/29 00:32:59;;;;;;;;;;;;;;;16.56;53.90;95730.41;4218851;28;5765;-65
2023/10/29 00:35:02;;;;;;;;;;;;;;;16.56;53.99;95725.06;4217991;28;5692;-65
2023/10/29 00:37:05;;;;;;;;;;;;;;;16.56;53.82;95728.53;4218423;28;5675;-66
2023/10/29 00:39:07;;;;;;;;;;;;;;;16.57;53.95;95737.34;4218325;28;6020;-65
2023/10/29 00:41:10;;;;;;;;;;;;;;;16.57;53.81;95745.34;4218547;28;7684;-66
2023/10/29 00:43:15;;;;;;;;;;;;;;;16.54;53.75;95746.69;4218636;28;6486;-65
2023/10/29 00:45:19;;;;;;;;;;;;;;;16.54;53.93;95745.88;4218424;28;5667;-66
2023/10/29 00:47:23;;;;;;;;;;;;;;;16.52;53.86;95750.63;4218937;28;5983;-66
2023/10/29 00:49:26;;;;;;;;;;;;;;;16.52;53.85;95747.97;4217808;28;5777;-66
2023/10/29 00:51:30;;;;;;;;;;;;;;;16.51;53.89;95754.38;4218298;28;5765;-66
2023/10/29 00:53:34;;;;;;;;;;;;;;;16.50;53.80;95753.56;4214115;28;5790;-65
2023/10/29 00:55:37;;;;;;;;;;;;;;;16.51;53.86;95749.03;4218323;28;5671;-66
2023/10/29 00:57:40;;;;;;;;;;;;;;;16.49;53.80;95743.97;4218423;28;5663;-65
2023/10/29 00:59:43;;;;;;;;;;;;;;;16.50;53.84;95744.75;4218138;28;5695;-66
2023/10/29 01:01:48;;;;;;;;;;;;;;;16.51;53.72;95741.03;4218036;28;5667;-65
2023/10/29 01:03:51;;;;;;;;;;;;;;;16.51;53.79;95736.50;4218333;28;5669;-66
2023/10/29 01:05:55;;;;;;;;;;;;;;;16.52;53.62;95735.44;4218163;28;5750;-65
2023/10/29 01:07:58;;;;;;;;;;;;;;;16.51;53.50;95733.03;4217704;28;5874;-65
2023/10/29 01:10:01;;;;;;;;;;;;;;;16.50;53.38;95723.41;4218109;28;6348;-65
2023/10/29 01:12:04;;;;;;;;;;;;;;;16.47;53.40;95716.75;4217602;28;5679;-65
2023/10/29 01:14:07;;;;;;;;;;;;;;;16.48;53.50;95712.19;4210156;28;5683;-66
2023/10/29 01:16:10;;;;;;;;;;;;;;;16.49;53.41;95717.28;4217969;28;5676;-66
2023/10/29 01:18:15;;;;;;;;;;;;;;;16.49;53.26;95727.16;4218027;28;5672;-66
2023/10/29 01:20:18;;;;;;;;;;;;;;;16.47;53.14;95708.72;4217686;28;5170;-65
2023/10/29 01:22:22;;;;;;;;;;;;;;;16.46;53.16;95714.31;4217834;28;5686;-65
2023/10/29 01:24:25;;;;;;;;;;;;;;;16.44;53.12;95706.59;4217868;28;5898;-66
2023/10/29 01:26:28;;;;;;;;;;;;;;;16.43;53.11;95704.97;4217544;28;5663;-66
2023/10/29 01:28:31;;;;;;;;;;;;;;;16.41;53.25;95698.28;4215815;28;5679;-66
2023/10/29 01:30:34;;;;;;;;;;;;;;;16.41;53.11;95699.06;4216485;28;5687;-67
2023/10/29 01:32:37;;;;;;;;;;;;;;;16.41;52.89;95700.94;4217410;28;5679;-66
2023/10/29 01:34:42;;;;;;;;;;;;;;;16.40;52.78;95694.81;4217694;28;5798;-65
2023/10/29 01:36:45;;;;;;;;;;;;;;;16.37;52.61;95694.53;4217303;28;5634;-65
2023/10/29 01:38:47;;;;;;;;;;;;;;;16.38;52.73;95699.59;4217397;28;6367;-66
2023/10/29 01:40:50;;;;;;;;;;;;;;;16.38;52.57;95685.47;4217380;28;6392;-65
2023/10/29 01:42:53;;;;;;;;;;;;;;;16.37;52.59;95686.53;4217716;28;5750;-64
2023/10/29 01:44:56;;;;;;;;;;;;;;;16.36;52.54;95682.25;4217612;28;5765;-64
2023/10/29 01:46:59;;;;;;;;;;;;;;;16.36;52.52;95677.72;4217376;28;5108;-65
2023/10/29 01:49:04;;;;;;;;;;;;;;;16.35;52.34;95664.63;4216850;28;5776;-65
2023/10/29 01:51:08;;;;;;;;;;;;;;;16.36;52.33;95658.25;4209599;28;5319;-65
2023/10/29 01:53:11;;;;;;;;;;;;;;;16.35;52.28;95667.31;4217052;28;7729;-66
2023/10/29 01:55:14;;;;;;;;;;;;;;;16.36;52.14;95668.91;4217380;28;7133;-65
2023/10/29 01:57:17;;;;;;;;;;;;;;;16.37;52.13;95668.66;4217322;28;5690;-65
2023/10/29 01:59:20;;;;;;;;;;;;;;;16.38;52.01;95672.13;4217486;28;6343;-65
2023/10/29 02:01:23;;;;;;;;;;;;;;;16.37;51.96;95679.31;4216514;28;5918;-65
2023/10/29 02:03:25;;;;;;;;;;;;;;;16.35;52.01;95680.66;4215909;28;6498;-65
2023/10/29 02:05:29;;;;;;;;;;;;;;;16.34;51.92;95687.03;4217222;28;5800;-65
2023/10/29 02:07:32;;;;;;;;;;;;;;;16.35;52.06;95685.97;4217240;28;5692;-65
2023/10/29 02:09:35;;;;;;;;;;;;;;;16.35;52.01;95686.78;4217158;28;5655;-66
2023/10/29 02:11:39;;;;;;;;;;;;;;;16.34;52.08;95684.38;4216736;28;5793;-65
2023/10/29 02:13:42;;;;;;;;;;;;;;;16.36;51.91;95682.25;4216729;28;5770;-66
2023/10/29 02:15:45;;;;;;;;;;;;;;;16.35;52.02;95672.63;4217407;28;5824;-65
2023/10/29 02:17:48;;;;;;;;;;;;;;;16.36;51.92;95666.25;4217473;28;5751;-65
2023/10/29 02:19:52;;;;;;;;;;;;;;;16.34;52.06;95665.69;4216794;28;5762;-65
2023/10/29 02:21:56;;;;;;;;;;;;;;;16.32;51.61;95655.28;4216892;28;5687;-66
2023/10/29 02:24:01;;;;;;;;;;;;;;;16.29;51.56;95656.59;4216776;28;5758;-66
2023/10/29 02:26:04;;;;;;;;;;;;;;;16.29;51.69;95656.59;4216920;28;5663;-66
2023/10/29 02:28:07;;;;;;;;;;;;;;;16.28;51.49;95640.84;4217100;28;5675;-66
2023/10/29 02:30:12;;;;;;;;;;;;;;;16.26;51.31;95638.44;4216831;28;5682;-65
2023/10/29 02:32:15;;;;;;;;;;;;;;;16.23;51.51;95630.97;4217112;28;5658;-65
2023/10/29 02:34:18;;;;;;;;;;;;;;;16.24;51.46;95632.56;4217330;28;6458;-65
2023/10/29 02:36:21;;;;;;;;;;;;;;;16.27;51.48;95637.38;4216803;28;5695;-65
2023/10/29 02:38:25;;;;;;;;;;;;;;;16.30;51.41;95628.84;4205013;28;5692;-64
2023/10/29 02:40:28;;;;;;;;;;;;;;;16.32;51.38;95628.63;4212331;28;5675;-65
2023/10/29 02:42:31;;;;;;;;;;;;;;;16.34;51.34;95644.38;4216909;28;5786;-65
2023/10/29 02:44:34;;;;;;;;;;;;;;;16.33;51.40;95638.22;4216828;28;5663;-65
2023/10/29 02:46:37;;;;;;;;;;;;;;;16.34;51.36;95641.69;4216888;28;5779;-65
2023/10/29 02:48:40;;;;;;;;;;;;;;;16.33;51.16;95640.91;4216927;28;5678;-66
2023/10/29 02:50:43;;;;;;;;;;;;;;;16.33;51.20;95643.56;4216975;28;5837;-65
2023/10/29 02:52:46;;;;;;;;;;;;;;;16.33;51.23;95643.56;4216615;28;5683;-64
2023/10/29 02:54:50;;;;;;;;;;;;;;;16.34;51.00;95641.69;4216974;28;5877;-65
2023/10/29 02:56:53;;;;;;;;;;;;;;;16.32;51.11;95649.97;4216792;28;5691;-66
2023/10/29 02:58:56;;;;;;;;;;;;;;;16.29;50.87;95640.59;4216810;28;5787;-66
2023/10/29 03:01:04;;;;;;;;;;;;;;;16.29;50.91;95635.25;4215336;28;5659;-66
2023/10/29 03:03:07;;;;;;;;;;;;;;;16.32;51.04;95643.81;4215425;28;5671;-66
2023/10/29 03:05:10;;;;;;;;;;;;;;;16.34;50.97;95641.69;4218708;28;5892;-66
2023/10/29 03:07:14;;;;;;;;;;;;;;;16.36;50.87;95639.56;4222843;28;5964;-63
2023/10/29 03:09:17;;;;;;;;;;;;;;;16.39;50.84;95636.38;4215665;28;5875;-66
2023/10/29 03:11:21;;;;;;;;;;;;;;;16.39;50.69;95625.72;4214163;28;5682;-66
2023/10/29 03:13:24;;;;;;;;;;;;;;;16.39;50.67;95625.72;4213515;28;5790;-66
2023/10/29 03:15:26;;;;;;;;;;;;;;;16.39;50.46;95628.38;4224169;28;5693;-66
2023/10/29 03:17:29;;;;;;;;;;;;;;;16.40;50.43;95624.66;4219950;28;5880;-65
2023/10/29 03:19:32;;;;;;;;;;;;;;;16.41;50.34;95623.59;4219534;28;5769;-65
2023/10/29 03:21:36;;;;;;;;;;;;;;;16.41;50.37;95620.91;4218308;28;5748;-65
2023/10/29 03:23:37;;;;;;;;;;;;;;;16.40;50.16;95611.31;4219737;28;5667;-65
2023/10/29 03:25:40;;;;;;;;;;;;;;;16.39;49.99;95623.84;4219810;28;5968;-66
2023/10/29 03:27:45;;;;;;;;;;;;;;;16.39;50.15;95618.50;4219459;28;8093;-66
2023/10/29 03:29:47;;;;;;;;;;;;;;;16.41;50.02;95624.38;4219618;28;5683;-66
2023/10/29 03:31:50;;;;;;;;;;;;;;;16.40;49.77;95617.44;4219430;28;6131;-66
2023/10/29 03:33:53;;;;;;;;;;;;;;;16.41;49.74;95610.25;4219478;28;6281;-66
2023/10/29 03:35:56;;;;;;;;;;;;;;;16.41;49.66;95618.25;4219546;28;5663;-66
2023/10/29 03:37:59;;;;;;;;;;;;;;;16.42;49.32;95611.84;4219087;28;6564;-66
2023/10/29 03:40:03;;;;;;;;;;;;;;;16.45;49.45;95603.34;4219415;28;5097;-64
2023/10/29 03:42:06;;;;;;;;;;;;;;;16.45;49.32;95601.50;4219394;28;7737;-65
2023/10/29 03:44:10;;;;;;;;;;;;;;;16.45;49.02;95596.16;4219457;28;5663;-65
2023/10/29 03:46:13;;;;;;;;;;;;;;;16.44;49.16;95599.88;4219269;28;5668;-65
2023/10/29 03:48:16;;;;;;;;;;;;;;;16.43;48.95;95598.28;4219466;28;5695;-65
2023/10/29 03:50:19;;;;;;;;;;;;;;;16.44;48.78;95586.56;4219195;28;5683;-66
2023/10/29 03:52:22;;;;;;;;;;;;;;;16.45;48.56;95592.69;4219361;28;5986;-65
2023/10/29 03:54:25;;;;;;;;;;;;;;;16.45;48.67;95600.69;4218929;28;5766;-66
2023/10/29 03:56:28;;;;;;;;;;;;;;;16.44;48.55;95604.41;4219489;28;5663;-67
2023/10/29 03:58:30;;;;;;;;;;;;;;;16.44;48.63;95601.75;4219203;28;5876;-66
2023/10/29 04:00:34;;;;;;;;;;;;;;;16.44;48.57;95615.09;4218954;28;5655;-65
2023/10/29 04:02:37;;;;;;;;;;;;;;;16.44;48.54;95605.22;4218780;28;5829;-66
2023/10/29 04:04:40;;;;;;;;;;;;;;;16.44;48.49;95605.22;4219003;28;6380;-65
2023/10/29 04:06:47;;;;;;;;;;;;;;;16.43;48.47;95611.63;4219381;28;5663;-66
2023/10/29 04:08:50;;;;;;;;;;;;;;;16.43;48.42;95618.81;4219007;28;5675;-66
2023/10/29 04:10:53;;;;;;;;;;;;;;;16.41;48.47;95615.59;4218723;28;5710;-65
2023/10/29 04:13:16;;;;;;;;;;;;;;;16.39;48.35;95623.84;4218513;28;5661;-65
2023/10/29 04:15:19;;;;;;;;;;;;;;;16.37;48.38;95627.84;4217794;28;5701;-66
2023/10/29 04:17:23;;;;;;;;;;;;;;;16.37;48.19;95619.84;4223746;28;5893;-65
2023/10/29 04:19:25;;;;;;;;;;;;;;;16.34;48.24;95625.69;4212835;28;6219;-65
2023/10/29 04:21:28;;;;;;;;;;;;;;;16.33;48.25;95613.44;4218420;28;5784;-65
2023/10/29 04:23:31;;;;;;;;;;;;;;;16.32;48.16;95612.63;4215918;28;5937;-66
2023/10/29 04:25:35;;;;;;;;;;;;;;;16.29;48.27;95603.25;4216369;28;5786;-65
2023/10/29 04:27:37;;;;;;;;;;;;;;;16.29;48.18;95603.25;4211114;28;5692;-65
2023/10/29 04:29:41;;;;;;;;;;;;;;;16.26;48.11;95609.09;4218732;28;5725;-65
2023/10/29 04:31:44;;;;;;;;;;;;;;;16.26;48.07;95601.09;4218551;28;5675;-66
2023/10/29 04:33:48;;;;;;;;;;;;;;;16.22;47.85;95585.91;4218500;28;5671;-66
2023/10/29 04:35:51;;;;;;;;;;;;;;;16.18;47.99;95585.59;4218664;28;5959;-66
2023/10/29 04:37:54;;;;;;;;;;;;;;;16.18;47.88;95590.91;4218486;28;5843;-64
2023/10/29 04:39:57;;;;;;;;;;;;;;;16.19;47.90;95595.19;4218531;28;5663;-65
2023/10/29 04:42:01;;;;;;;;;;;;;;;16.19;47.85;95595.19;4218387;28;5676;-65
2023/10/29 04:44:04;;;;;;;;;;;;;;;16.21;48.01;95579.75;4218745;28;6484;-65
2023/10/29 04:46:08;;;;;;;;;;;;;;;16.19;47.94;95587.19;4218459;28;5659;-65
2023/10/29 04:48:11;;;;;;;;;;;;;;;16.18;47.93;95590.13;4218509;28;5803;-65
2023/10/29 04:50:19;;;;;;;;;;;;;;;16.18;48.00;95596.25;4215866;28;5778;-65
2023/10/29 04:52:21;;;;;;;;;;;;;;;16.19;48.01;95595.19;4212826;28;5734;-65
2023/10/29 04:54:24;;;;;;;;;;;;;;;16.18;48.08;95596.25;4213458;28;5878;-66
2023/10/29 04:56:27;;;;;;;;;;;;;;;16.18;48.03;95606.13;4217281;28;5767;-65
2023/10/29 04:58:31;;;;;;;;;;;;;;;16.17;48.18;95593.84;4216736;28;5679;-65
2023/10/29 05:00:34;;;;;;;;;;;;;;;16.17;48.37;95586.66;4217058;28;5675;-65
2023/10/29 05:02:37;;;;;;;;;;;;;;;16.19;48.51;95578.38;4217201;28;5660;-65
2023/10/29 05:04:40;;;;;;;;;;;;;;;16.19;48.48;95581.84;4218192;28;5679;-66
2023/10/29 05:06:45;;;;;;;;;;;;;;;16.19;48.60;95575.72;4218112;28;5093;-66
2023/10/29 05:08:49;;;;;;;;;;;;;;;16.16;48.82;95571.72;4218056;28;5683;-66
2023/10/29 05:10:52;;;;;;;;;;;;;;;16.16;48.71;95577.03;4217780;28;5758;-66
2023/10/29 05:12:56;;;;;;;;;;;;;;;16.15;48.94;95574.66;4218297;28;6469;-66
2023/10/29 05:14:59;;;;;;;;;;;;;;;16.13;48.94;95568.78;4217923;28;5761;-66
2023/10/29 05:17:02;;;;;;;;;;;;;;;16.14;49.21;95565.03;4212434;28;6442;-66
2023/10/29 05:19:05;;;;;;;;;;;;;;;16.14;49.19;95568.50;4209494;28;5672;-65
2023/10/29 05:21:08;;;;;;;;;;;;;;;16.12;49.16;95565.31;4217994;28;5671;-65
2023/10/29 05:23:12;;;;;;;;;;;;;;;16.13;49.32;95572.25;4216625;28;5822;-65
2023/10/29 05:25:15;;;;;;;;;;;;;;;16.13;49.41;95561.56;4217258;28;5925;-65
2023/10/29 05:27:18;;;;;;;;;;;;;;;16.15;49.45;95562.13;4215135;28;5787;-65
2023/10/29 05:29:21;;;;;;;;;;;;;;;16.17;49.54;95553.84;4211232;28;5681;-66
2023/10/29 05:31:24;;;;;;;;;;;;;;;16.18;49.48;95556.25;4213674;28;5659;-65
2023/10/29 05:33:27;;;;;;;;;;;;;;;16.19;49.53;95557.84;4209598;28;5695;-65
2023/10/29 05:35:30;;;;;;;;;;;;;;;16.20;49.59;95559.50;4213796;28;5675;-66
2023/10/29 05:37:33;;;;;;;;;;;;;;;16.20;49.67;95556.81;4206989;28;5950;-66
2023/10/29 05:39:37;;;;;;;;;;;;;;;16.20;49.68;95556.81;4213683;28;8026;-65
2023/10/29 05:41:40;;;;;;;;;;;;;;;16.19;49.77;95559.72;4207504;28;5659;-66
2023/10/29 05:43:43;;;;;;;;;;;;;;;16.18;49.71;95566.13;4216297;28;5659;-66
2023/10/29 05:45:45;;;;;;;;;;;;;;;16.16;49.85;95570.91;4222415;28;5650;-66
2023/10/29 05:47:48;;;;;;;;;;;;;;;16.11;49.64;95573.56;4208920;28;5821;-65
2023/10/29 05:49:51;;;;;;;;;;;;;;;16.11;49.69;95574.38;4215319;28;5722;-66
2023/10/29 05:51:55;;;;;;;;;;;;;;;16.10;49.76;95575.44;4214606;28;5742;-66
2023/10/29 05:53:57;;;;;;;;;;;;;;;16.10;49.73;95583.44;4216055;28;5667;-65
2023/10/29 05:56:04;;;;;;;;;;;;;;;16.10;49.89;95586.09;4217039;28;5664;-66
2023/10/29 05:58:07;;;;;;;;;;;;;;;16.09;49.59;95586.34;4216270;28;5678;-66
2023/10/29 06:00:11;;;;;;;;;;;;;;;16.03;49.51;95580.16;4216780;28;5671;-65
2023/10/29 06:02:14;;;;;;;;;;;;;;;16.05;49.62;95583.38;4217484;28;5672;-66
2023/10/29 06:04:17;;;;;;;;;;;;;;;16.04;49.83;95589.75;4217468;28;5667;-65
2023/10/29 06:06:20;;;;;;;;;;;;;;;16.06;49.61;95582.31;4207974;28;5700;-66
2023/10/29 06:08:23;;;;;;;;;;;;;;;16.08;49.67;95580.19;4210338;28;5886;-65
2023/10/29 06:10:26;;;;;;;;;;;;;;;16.09;49.74;95576.50;4215693;28;6218;-66
2023/10/29 06:12:30;;;;;;;;;;;;;;;16.10;49.70;95577.28;4212363;28;5659;-65
2023/10/29 06:14:33;;;;;;;;;;;;;;;16.11;49.52;95582.34;4217448;28;5675;-66
2023/10/29 06:16:37;;;;;;;;;;;;;;;16.12;49.58;95575.97;4224849;28;6359;-65
2023/10/29 06:18:39;;;;;;;;;;;;;;;16.11;49.44;95593.03;4208703;28;6641;-65
2023/10/29 06:20:43;;;;;;;;;;;;;;;16.11;48.84;95578.91;4204948;28;5755;-67
2023/10/29 06:22:47;;;;;;;;;;;;;;;16.03;49.05;95582.84;4206466;28;6787;-65
2023/10/29 06:24:50;;;;;;;;;;;;;;;16.04;49.27;95588.97;4216283;28;5840;-65
2023/10/29 06:26:53;;;;;;;;;;;;;;;16.04;49.31;95581.78;4217199;28;5766;-66
2023/10/29 06:28:56;;;;;;;;;;;;;;;16.05;49.31;95590.56;4209532;28;5683;-66
2023/10/29 06:30:59;;;;;;;;;;;;;;;16.08;49.24;95582.06;4216593;28;5101;-66
2023/10/29 06:33:02;;;;;;;;;;;;;;;16.09;49.17;95592.47;4208055;28;5673;-66
2023/10/29 06:35:07;;;;;;;;;;;;;;;16.11;49.09;95585.03;4208006;28;5599;-66
2023/10/29 06:37:10;;;;;;;;;;;;;;;16.10;48.92;95588.75;4217087;28;5682;-66
2023/10/29 06:39:13;;;;;;;;;;;;;;;16.07;48.99;95589.25;4216589;28;5664;-66
2023/10/29 06:41:16;;;;;;;;;;;;;;;16.06;48.86;95587.63;4216748;28;5683;-66
2023/10/29 06:43:19;;;;;;;;;;;;;;;16.11;48.90;95586.88;4216940;28;5667;-66
2023/10/29 06:45:23;;;;;;;;;;;;;;;16.12;48.67;95583.97;4216699;28;5675;-66
2023/10/29 06:47:26;;;;;;;;;;;;;;;16.15;48.67;95585.31;4217790;28;5742;-66
2023/10/29 06:49:29;;;;;;;;;;;;;;;16.18;48.67;95584.78;4220086;28;5754;-66
2023/10/29 06:51:32;;;;;;;;;;;;;;;16.20;48.55;95588.81;4220243;28;5656;-67
2023/10/29 06:53:35;;;;;;;;;;;;;;;16.21;48.42;95587.75;4211599;28;5675;-66
2023/10/29 06:55:40;;;;;;;;;;;;;;;16.26;48.46;95589.63;4220129;28;5646;-66
2023/10/29 06:57:43;;;;;;;;;;;;;;;16.29;48.46;95591.78;4220054;28;5738;-66
2023/10/29 06:59:46;;;;;;;;;;;;;;;16.32;48.30;95606.50;4220123;28;6394;-66
2023/10/29 07:01:50;;;;;;;;;;;;;;;16.33;48.14;95602.75;4219713;28;5782;-66
2023/10/29 07:03:53;;;;;;;;;;;;;;;16.33;47.73;95605.44;4219891;28;5671;-66
2023/10/29 07:06:03;;;;;;;;;;;;;;;16.32;47.73;95601.16;4219821;28;5663;-66
2023/10/29 07:08:06;;;;;;;;;;;;;;;16.34;47.87;95602.50;4211454;28;5675;-66
2023/10/29 07:10:10;;;;;;;;;;;;;;;16.38;47.81;95608.91;4219809;28;5618;-66
2023/10/29 07:12:13;;;;;;;;;;;;;;;16.40;48.01;95606.78;4219822;28;5901;-66
2023/10/29 07:14:16;;;;;;;;;;;;;;;16.43;47.78;95608.97;4219609;28;5905;-66
2023/10/29 07:16:18;;;;;;;;;;;;;;;16.44;47.92;95604.41;4219637;28;6697;-66
2023/10/29 07:18:23;;;;;;;;;;;;;;;16.48;47.90;95610.84;4219760;28;5676;-66
2023/10/29 07:20:26;;;;;;;;;;;;;;;16.50;47.93;95620.19;4219660;28;5802;-66
2023/10/29 07:22:29;;;;;;;;;;;;;;;16.52;47.84;95626.06;4219714;28;5817;-66
2023/10/29 07:24:35;;;;;;;;;;;;;;;16.53;47.80;95629.53;4219338;28;5671;-66
2023/10/29 07:26:38;;;;;;;;;;;;;;;16.56;47.84;95634.38;4219618;28;5679;-66
2023/10/29 07:28:41;;;;;;;;;;;;;;;16.57;47.83;95631.44;4219597;28;5766;-66
2023/10/29 07:30:44;;;;;;;;;;;;;;;16.61;47.97;95634.38;4219727;28;5663;-66
2023/10/29 07:32:47;;;;;;;;;;;;;;;16.64;47.98;95636.53;4219694;28;5671;-66
2023/10/29 07:34:52;;;;;;;;;;;;;;;16.68;48.07;95637.66;4219572;28;5856;-67
2023/10/29 07:36:55;;;;;;;;;;;;;;;16.71;48.05;95636.31;4210466;28;5779;-66
2023/10/29 07:38:58;;;;;;;;;;;;;;;16.73;48.14;95640.34;4218166;28;5730;-66
2023/10/29 07:41:01;;;;;;;;;;;;;;;16.76;48.13;95642.50;4214557;28;5746;-66
2023/10/29 07:43:04;;;;;;;;;;;;;;;16.77;48.17;95630.78;4211827;28;5667;-66
2023/10/29 07:45:07;;;;;;;;;;;;;;;16.80;48.15;95630.25;4218783;28;5660;-66
2023/10/29 07:47:11;;;;;;;;;;;;;;;16.85;47.88;95634.78;4219344;28;6363;-66
2023/10/29 07:49:17;;;;;;;;;;;;;;;16.86;48.00;95639.84;4214825;28;5698;-65
2023/10/29 07:51:21;;;;;;;;;;;;;;;16.88;47.84;95643.09;4215511;28;5910;-66
2023/10/29 07:53:26;;;;;;;;;;;;;;;16.90;47.81;95650.84;4217729;28;5675;-65
2023/10/29 07:55:29;;;;;;;;;;;;;;;16.91;48.01;95647.09;4215922;28;5073;-66
2023/10/29 07:57:32;;;;;;;;;;;;;;;16.94;47.87;95651.13;4216766;28;6351;-66
2023/10/29 07:59:35;;;;;;;;;;;;;;;16.94;47.87;95657.25;4216882;28;5679;-66
2023/10/29 08:01:38;;;;;;;;;;;;;;;16.97;47.81;95645.25;4214185;28;5779;-67
2023/10/29 08:03:41;;;;;;;;;;;;;;;16.97;47.95;95640.72;4216006;28;5667;-67
2023/10/29 08:05:52;;;;;;;;;;;;;;;17.00;47.96;95642.06;4218711;28;5683;-67
2023/10/29 08:07:56;;;;;;;;;;;;;;;16.99;47.92;95632.44;4218424;28;5770;-67
2023/10/29 08:09:58;;;;;;;;;;;;;;;17.00;48.01;95637.53;4214968;28;5660;-66
2023/10/29 08:12:01;;;;;;;;;;;;;;;17.00;48.04;95628.72;4217354;28;5762;-65
2023/10/29 08:14:04;;;;;;;;;;;;;;;17.01;48.20;95633.81;4216788;28;5667;-65
2023/10/29 08:16:07;;;;;;;;;;;;;;;17.02;48.17;95632.72;4217502;28;5664;-66
2023/10/29 08:18:10;;;;;;;;;;;;;;;17.02;48.31;95638.06;4216975;28;5766;-66
2023/10/29 08:20:13;;;;;;;;;;;;;;;17.03;48.30;95638.88;4217160;28;5822;-66
2023/10/29 08:22:17;;;;;;;;;;;;;;;17.04;48.32;95635.13;4217193;28;5696;-66
2023/10/29 08:24:21;;;;;;;;;;;;;;;17.05;48.56;95634.06;4216957;28;5668;-66
2023/10/29 08:26:26;;;;;;;;;;;;;;;17.08;48.51;95633.53;4217189;28;5750;-66
2023/10/29 08:28:29;;;;;;;;;;;;;;;17.11;48.51;95635.72;4217390;28;5762;-66
2023/10/29 08:30:32;;;;;;;;;;;;;;;17.15;48.67;95634.09;4215991;28;5620;-66
2023/10/29 08:32:35;;;;;;;;;;;;;;;17.18;48.73;95638.91;4217348;28;5984;-66
2023/10/29 08:34:38;;;;;;;;;;;;;;;17.20;48.86;95638.66;4217229;28;5690;-66
2023/10/29 08:36:41;;;;;;;;;;;;;;;17.25;48.78;95641.34;4217144;28;5819;-66
2023/10/29 08:38:44;;;;;;;;;;;;;;;17.26;48.86;95650.97;4215822;28;5642;-66
2023/10/29 08:40:48;;;;;;;;;;;;;;;17.27;48.87;95640.00;4217239;28;5757;-66
2023/10/29 08:42:51;;;;;;;;;;;;;;;17.29;48.84;95629.88;4214393;28;5765;-67
2023/10/29 08:44:56;;;;;;;;;;;;;;;17.32;49.00;95633.88;4215452;28;5659;-66
2023/10/29 08:46:59;;;;;;;;;;;;;;;17.32;49.01;95640.00;4215928;28;5703;-66
2023/10/29 08:49:02;;;;;;;;;;;;;;;17.32;48.69;95642.69;4215724;28;5887;-66
2023/10/29 08:51:04;;;;;;;;;;;;;;;17.33;48.84;95646.19;4215392;28;5809;-66
2023/10/29 08:53:08;;;;;;;;;;;;;;;17.32;48.93;95637.34;4215559;28;5692;-66
2023/10/29 08:55:10;;;;;;;;;;;;;;;17.34;48.82;95634.44;4215759;28;6368;-66
2023/10/29 08:57:15;;;;;;;;;;;;;;;17.34;48.79;95640.59;4215424;28;6365;-66
2023/10/29 08:59:17;;;;;;;;;;;;;;;17.38;48.86;95646.19;4215683;28;5795;-66
2023/10/29 09:01:20;;;;;;;;;;;;;;;17.39;48.68;95653.13;4215695;28;6941;-66
2023/10/29 09:03:23;;;;;;;;;;;;;;;17.41;48.52;95659.00;4215536;28;5837;-67
2023/10/29 09:05:27;;;;;;;;;;;;;;;17.43;48.61;95664.88;4215372;28;5857;-65
2023/10/29 09:07:30;;;;;;;;;;;;;;;17.44;48.37;95659.31;4215081;28;5811;-66
2023/10/29 09:09:35;;;;;;;;;;;;;;;17.48;48.08;95664.13;4213793;28;5915;-65
2023/10/29 09:11:38;;;;;;;;;;;;;;;17.48;48.49;95661.44;4214769;28;5117;-66
2023/10/29 09:13:42;;;;;;;;;;;;;;;17.49;48.20;95652.34;4215333;28;5763;-67
2023/10/29 09:15:46;;;;;;;;;;;;;;;17.49;48.33;95641.69;4215541;28;5828;-66
2023/10/29 09:17:48;;;;;;;;;;;;;;;17.51;48.17;95634.19;4215364;28;5722;-66
2023/10/29 09:19:51;;;;;;;;;;;;;;;17.52;48.19;95627.78;4214937;28;6775;-66
2023/10/29 09:21:54;;;;;;;;;;;;;;;17.52;48.17;95617.88;4215085;28;5699;-66
2023/10/29 09:23:57;;;;;;;;;;;;;;;17.55;48.33;95629.91;4215036;28;5753;-65
2023/10/29 09:26:00;;;;;;;;;;;;;;;17.57;48.15;95631.28;4215230;28;5855;-66
2023/10/29 09:28:06;;;;;;;;;;;;;;;17.59;48.39;95623.78;4213902;28;5727;-66
2023/10/29 09:30:11;;;;;;;;;;;;;;;17.60;48.35;95620.03;4215186;28;6490;-66
2023/10/29 09:32:15;;;;;;;;;;;;;;;17.61;48.30;95618.97;4215006;28;5746;-65
2023/10/29 09:34:18;;;;;;;;;;;;;;;17.64;48.29;95607.75;4214964;28;5663;-66
2023/10/29 09:36:21;;;;;;;;;;;;;;;17.64;48.42;95597.06;4214830;28;5744;-65
2023/10/29 09:38:24;;;;;;;;;;;;;;;17.68;48.45;95608.03;4214429;28;6454;-65
2023/10/29 09:40:26;;;;;;;;;;;;;;;17.69;48.23;95620.34;4214139;28;5663;-66
2023/10/29 09:42:30;;;;;;;;;;;;;;;17.72;48.36;95609.13;4213252;28;5840;-66
2023/10/29 09:44:34;;;;;;;;;;;;;;;17.75;48.27;95613.94;4214517;28;5353;-66
2023/10/29 09:46:39;;;;;;;;;;;;;;;17.78;48.31;95612.59;4214923;28;6498;-67
2023/10/29 09:48:44;;;;;;;;;;;;;;;17.77;48.49;95606.44;4214748;28;5922;-66
2023/10/29 09:50:48;;;;;;;;;;;;;;;17.82;48.22;95616.34;4214586;28;5167;-66
2023/10/29 09:52:52;;;;;;;;;;;;;;;17.84;48.38;95615.00;4214771;28;7706;-66
2023/10/29 09:54:58;;;;;;;;;;;;;;;17.88;48.41;95616.06;4214893;28;5857;-66
2023/10/29 09:57:01;;;;;;;;;;;;;;;17.89;48.36;95601.63;4215850;28;5798;-66
2023/10/29 09:59:06;;;;;;;;;;;;;;;17.93;48.40;95612.59;4214801;28;5228;-66
2023/10/29 10:01:09;;;;;;;;;;;;;;;17.93;48.12;95597.38;4216012;28;5675;-66
2023/10/29 10:03:14;;;;;;;;;;;;;;;17.97;48.40;95594.94;4215828;28;5754;-66
2023/10/29 10:05:19;;;;;;;;;;;;;;;17.98;48.30;95593.88;4215477;28;5776;-66
2023/10/29 10:07:22;;;;;;;;;;;;;;;17.99;48.28;95603.50;4215950;28;5758;-66
2023/10/29 10:09:25;;;;;;;;;;;;;;;18.01;48.26;95604.06;4215891;28;5825;-66
2023/10/29 10:11:28;;;;;;;;;;;;;;;18.03;48.45;95613.41;4215460;28;5671;-66
2023/10/29 10:13:38;;;;;;;;;;;;;;;18.03;48.66;95620.63;4215126;28;5754;-66
2023/10/29 10:15:41;;;;;;;;;;;;;;;18.02;48.88;95614.47;4215424;28;5738;-66
2023/10/29 10:17:50;;;;;;;;;;;;;;;18.03;48.96;95634.81;4215303;28;5740;-67
2023/10/29 10:20:06;;;;;;;;;;;;;;;18.02;49.09;95641.22;4215543;28;6471;-67
2023/10/29 10:22:10;;;;;;;;;;;;;;;18.03;49.20;95642.81;4216167;28;5675;-67
2023/10/29 10:24:12;;;;;;;;;;;;;;;18.02;49.23;95638.56;4219330;28;5664;-68
2023/10/29 10:26:18;;;;;;;;;;;;;;;18.03;49.41;95637.47;4219213;28;5696;-68
2023/10/29 10:28:21;;;;;;;;;;;;;;;18.04;49.26;95636.41;4219080;28;5849;-67
2023/10/29 10:30:25;;;;;;;;;;;;;;;18.06;49.41;95640.69;4219194;28;5703;-67
2023/10/29 10:32:29;;;;;;;;;;;;;;;18.06;49.54;95643.34;4219443;28;5675;-67
2023/10/29 10:34:33;;;;;;;;;;;;;;;18.07;49.23;95637.72;4219280;28;5742;-67
2023/10/29 10:36:38;;;;;;;;;;;;;;;18.09;48.88;95632.13;4219274;28;5749;-67
2023/10/29 10:38:52;;;;;;;;;;;;;;;18.12;48.85;95639.59;4218871;28;5679;-67
2023/10/29 10:40:58;;;;;;;;;;;;;;;18.12;48.64;95648.44;4218864;28;6577;-67
2023/10/29 10:43:02;;;;;;;;;;;;;;;18.13;48.82;95643.91;4218900;28;5692;-66
2023/10/29 10:45:05;;;;;;;;;;;;;;;18.13;48.36;95636.69;4218783;28;5890;-65
2023/10/29 10:47:09;;;;;;;;;;;;;;;18.15;48.13;95623.03;4218797;28;5687;-66
2023/10/29 10:49:11;;;;;;;;;;;;;;;18.17;48.27;95610.97;4218874;28;5675;-66
2023/10/29 10:51:15;;;;;;;;;;;;;;;18.17;48.02;95628.91;4218836;28;5798;-66